createdAt,value
2023-03-26T00:00:16.373Z,1000.49
2023-03-26T00:01:16.946Z,1000.40
2023-03-26T00:02:17.121Z,1000.42
2023-03-26T00:03:16.187Z,1000.53
2023-03-26T00:04:16.935Z,1000.59
2023-03-26T00:05:16.176Z,1000.57
2023-03-26T00:06:16.121Z,1000.56
2023-03-26T00:07:16.954Z,1000.61
2023-03-26T00:08:16.115Z,1000.59
2023-03-26T00:09:17.032Z,1000.57
2023-03-26T00:10:16.886Z,1000.65
2023-03-26T00:11:17.010Z,1000.63
2023-03-26T00:12:16.064Z,1000.65
2023-03-26T00:13:16.074Z,1000.69
2023-03-26T00:14:16.014Z,1000.64
2023-03-26T00:15:15.978Z,1000.71
2023-03-26T00:16:16.064Z,1000.66
2023-03-26T00:17:16.946Z,1000.75
2023-03-26T00:18:16.854Z,1000.73
2023-03-26T00:19:15.932Z,1000.73
2023-03-26T00:20:15.966Z,1000.76
2023-03-26T00:21:15.998Z,1000.78
2023-03-26T00:22:15.950Z,1000.76
2023-03-26T00:23:16.627Z,1000.77
2023-03-26T00:24:16.050Z,1000.78
2023-03-26T00:25:16.697Z,1000.77
2023-03-26T00:26:15.930Z,1000.82
2023-03-26T00:27:16.754Z,1000.81
2023-03-26T00:28:15.831Z,1000.82
2023-03-26T00:29:15.827Z,1000.86
2023-03-26T00:30:16.730Z,1000.85
2023-03-26T00:31:16.690Z,1000.84
2023-03-26T00:32:15.751Z,1000.91
2023-03-26T00:33:16.690Z,1000.88
2023-03-26T00:34:15.975Z,1000.90
2023-03-26T00:35:16.520Z,1000.94
2023-03-26T00:36:15.758Z,1000.86
2023-03-26T00:37:15.697Z,1000.89
2023-03-26T00:38:15.632Z,1000.92
2023-03-26T00:39:15.918Z,1000.92
2023-03-26T00:40:16.562Z,1000.96
2023-03-26T00:41:15.671Z,1000.94
2023-03-26T00:42:15.621Z,1000.90
2023-03-26T00:43:15.640Z,1000.95
2023-03-26T00:44:15.969Z,1000.95
2023-03-26T00:45:15.685Z,1000.93
2023-03-26T00:46:15.707Z,1000.96
2023-03-26T00:47:15.557Z,1000.99
2023-03-26T00:48:15.524Z,1000.99
2023-03-26T00:49:15.512Z,1001.02
2023-03-26T00:50:15.677Z,1001.00
2023-03-26T00:51:15.878Z,1001.03
2023-03-26T00:52:15.590Z,1001.04
2023-03-26T00:53:15.468Z,1001.01
2023-03-26T00:54:15.699Z,1001.00
2023-03-26T00:55:15.661Z,1001.04
2023-03-26T00:56:15.579Z,1000.99
2023-03-26T00:57:25.714Z,1000.99
2023-03-26T00:58:17.423Z,1001.02
2023-03-26T00:59:15.631Z,1001.05
2023-03-26T01:00:15.383Z,1001.05
2023-03-26T01:01:15.382Z,1001.02
2023-03-26T01:02:15.643Z,1001.05
2023-03-26T01:03:26.648Z,1001.06
2023-03-26T01:04:16.505Z,1001.11
2023-03-26T01:05:15.602Z,1001.09
2023-03-26T01:06:15.562Z,1001.11
2023-03-26T01:07:15.316Z,1001.11
2023-03-26T01:08:15.580Z,1001.16
2023-03-26T01:09:15.282Z,1001.12
2023-03-26T01:10:15.232Z,1001.15
2023-03-26T01:11:15.187Z,1001.20
2023-03-26T01:12:15.721Z,1001.18
2023-03-26T01:13:15.196Z,1001.22
2023-03-26T01:14:15.180Z,1001.26
2023-03-26T01:15:15.183Z,1001.21
2023-03-26T01:16:15.173Z,1001.26
2023-03-26T01:17:15.183Z,1001.28
2023-03-26T01:18:15.106Z,1001.25
2023-03-26T01:19:15.083Z,1001.20
2023-03-26T01:20:15.110Z,1001.22
2023-03-26T01:21:15.047Z,1001.21
2023-03-26T01:22:15.109Z,1001.23
2023-03-26T01:23:15.023Z,1001.24
2023-03-26T01:24:15.021Z,1001.24
2023-03-26T01:25:15.012Z,1001.21
2023-03-26T01:26:15.014Z,1001.33
2023-03-26T01:27:14.975Z,1001.27
2023-03-26T01:28:14.981Z,1001.32
2023-03-26T01:29:14.956Z,1001.32
2023-03-26T01:30:14.959Z,1001.33
2023-03-26T01:31:14.903Z,1001.29
2023-03-26T01:32:14.923Z,1001.31
2023-03-26T01:33:14.962Z,1001.39
2023-03-26T01:34:14.864Z,1001.30
2023-03-26T01:35:14.849Z,1001.34
2023-03-26T01:36:14.918Z,1001.41
2023-03-26T01:37:14.840Z,1001.39
2023-03-26T01:38:14.836Z,1001.37
2023-03-26T01:39:14.805Z,1001.35
2023-03-26T01:40:14.753Z,1001.29
2023-03-26T01:41:14.812Z,1001.31
2023-03-26T01:42:15.088Z,1001.26
2023-03-26T01:43:14.759Z,1001.32
2023-03-26T01:44:14.752Z,1001.33
2023-03-26T01:45:14.685Z,1001.38
2023-03-26T01:46:15.203Z,1001.34
2023-03-26T01:47:15.138Z,1001.36
2023-03-26T01:48:14.763Z,1001.41
2023-03-26T01:49:14.733Z,1001.40
2023-03-26T01:50:14.707Z,1001.40
2023-03-26T01:51:14.812Z,1001.39
2023-03-26T01:52:14.618Z,1001.40
2023-03-26T01:53:14.596Z,1001.40
2023-03-26T01:54:14.640Z,1001.43
2023-03-26T01:55:14.553Z,1001.43
2023-03-26T01:56:14.565Z,1001.45
2023-03-26T01:57:14.621Z,1001.49
2023-03-26T01:58:14.520Z,1001.52
2023-03-26T01:59:14.539Z,1001.53
2023-03-26T02:00:14.529Z,1001.50
2023-03-26T02:01:14.509Z,1001.54
2023-03-26T02:02:14.562Z,1001.55
2023-03-26T02:03:14.562Z,1001.53
2023-03-26T02:04:14.585Z,1001.51
2023-03-26T02:05:14.471Z,1001.54
2023-03-26T02:06:14.481Z,1001.47
2023-03-26T02:07:14.863Z,1001.53
2023-03-26T02:08:14.609Z,1001.54
2023-03-26T02:09:14.490Z,1001.52
2023-03-26T02:10:14.483Z,1001.55
2023-03-26T02:11:14.732Z,1001.51
2023-03-26T02:12:14.939Z,1001.56
2023-03-26T02:13:15.041Z,1001.55
2023-03-26T02:14:14.394Z,1001.49
2023-03-26T02:15:14.755Z,1001.50
2023-03-26T02:16:14.476Z,1001.50
2023-03-26T02:17:14.522Z,1001.49
2023-03-26T02:18:14.338Z,1001.46
2023-03-26T02:19:14.341Z,1001.46
2023-03-26T02:20:14.376Z,1001.47
2023-03-26T02:21:14.236Z,1001.49
2023-03-26T02:22:14.451Z,1001.52
2023-03-26T02:23:14.314Z,1001.54
2023-03-26T02:24:14.362Z,1001.53
2023-03-26T02:25:14.527Z,1001.60
2023-03-26T02:26:14.585Z,1001.59
2023-03-26T02:27:14.225Z,1001.58
2023-03-26T02:28:14.211Z,1001.57
2023-03-26T02:29:14.100Z,1001.56
2023-03-26T02:30:14.156Z,1001.54
2023-03-26T02:31:14.198Z,1001.58
2023-03-26T02:32:14.346Z,1001.54
2023-03-26T02:33:14.075Z,1001.57
2023-03-26T02:34:14.172Z,1001.50
2023-03-26T02:35:14.127Z,1001.54
2023-03-26T02:36:14.258Z,1001.52
2023-03-26T02:37:14.353Z,1001.50
2023-03-26T02:38:14.042Z,1001.49
2023-03-26T02:39:14.335Z,1001.52
2023-03-26T02:40:14.103Z,1001.48
2023-03-26T02:41:14.930Z,1001.51
2023-03-26T02:42:14.800Z,1001.57
2023-03-26T02:43:13.983Z,1001.48
2023-03-26T02:44:14.905Z,1001.44
2023-03-26T02:45:14.871Z,1001.42
2023-03-26T02:46:14.734Z,1001.41
2023-03-26T02:47:13.886Z,1001.33
2023-03-26T02:48:13.851Z,1001.39
2023-03-26T02:49:14.645Z,1001.35
2023-03-26T02:50:14.555Z,1001.41
2023-03-26T02:51:13.779Z,1001.35
2023-03-26T02:52:13.787Z,1001.33
2023-03-26T02:53:13.768Z,1001.41
2023-03-26T02:54:13.797Z,1001.35
2023-03-26T02:55:14.591Z,1001.31
2023-03-26T02:56:14.480Z,1001.33
2023-03-26T02:57:14.737Z,1001.36
2023-03-26T02:58:14.545Z,1001.41
2023-03-26T02:59:14.451Z,1001.41
2023-03-26T03:00:14.668Z,1001.37
2023-03-26T03:01:13.746Z,1001.41
2023-03-26T03:02:14.544Z,1001.45
2023-03-26T03:03:14.637Z,1001.44
2023-03-26T03:04:14.524Z,1001.42
2023-03-26T03:05:14.396Z,1001.38
2023-03-26T03:06:14.549Z,1001.39
2023-03-26T03:07:14.474Z,1001.43
2023-03-26T03:08:14.410Z,1001.44
2023-03-26T03:09:14.525Z,1001.45
2023-03-26T03:10:14.421Z,1001.45
2023-03-26T03:11:14.850Z,1001.45
2023-03-26T03:12:13.564Z,1001.44
2023-03-26T03:13:14.437Z,1001.41
2023-03-26T03:14:14.324Z,1001.42
2023-03-26T03:15:13.473Z,1001.41
2023-03-26T03:16:14.383Z,1001.45
2023-03-26T03:17:13.449Z,1001.33
2023-03-26T03:18:14.420Z,1001.34
2023-03-26T03:19:13.464Z,1001.31
2023-03-26T03:20:14.223Z,1001.37
2023-03-26T03:21:13.390Z,1001.34
2023-03-26T03:22:13.376Z,1001.36
2023-03-26T03:23:14.245Z,1001.31
2023-03-26T03:24:13.335Z,1001.29
2023-03-26T03:25:14.588Z,1001.28
2023-03-26T03:26:14.309Z,1001.25
2023-03-26T03:27:14.067Z,1001.29
2023-03-26T03:28:13.312Z,1001.25
2023-03-26T03:29:14.240Z,1001.22
2023-03-26T03:30:14.166Z,1001.27
2023-03-26T03:31:13.377Z,1001.25
2023-03-26T03:32:14.114Z,1001.27
2023-03-26T03:33:14.114Z,1001.25
2023-03-26T03:34:13.224Z,1001.25
2023-03-26T03:35:14.144Z,1001.18
2023-03-26T03:36:20.963Z,1001.30
2023-03-26T03:37:14.197Z,1001.25
2023-03-26T03:38:13.239Z,1001.30
2023-03-26T03:39:13.185Z,1001.26
2023-03-26T03:40:13.141Z,1001.30
2023-03-26T03:41:13.892Z,1001.32
2023-03-26T03:42:13.208Z,1001.31
2023-03-26T03:43:13.083Z,1001.32
2023-03-26T03:44:13.066Z,1001.33
2023-03-26T03:45:13.943Z,1001.37
2023-03-26T03:46:13.128Z,1001.34
2023-03-26T03:47:13.032Z,1001.34
2023-03-26T03:48:13.019Z,1001.33
2023-03-26T03:49:13.103Z,1001.37
2023-03-26T03:50:13.000Z,1001.35
2023-03-26T03:51:13.819Z,1001.38
2023-03-26T03:52:13.733Z,1001.43
2023-03-26T03:53:13.919Z,1001.44
2023-03-26T03:54:12.941Z,1001.40
2023-03-26T03:55:12.959Z,1001.39
2023-03-26T03:56:13.060Z,1001.35
2023-03-26T03:57:13.846Z,1001.35
2023-03-26T03:58:12.879Z,1001.35
2023-03-26T03:59:12.936Z,1001.39
2023-03-26T04:00:12.875Z,1001.34
2023-03-26T04:01:12.854Z,1001.36
2023-03-26T04:02:12.989Z,1001.47
2023-03-26T04:03:12.853Z,1001.46
2023-03-26T04:04:13.613Z,1001.42
2023-03-26T04:05:13.790Z,1001.37
2023-03-26T04:06:12.773Z,1001.40
2023-03-26T04:07:12.777Z,1001.35
2023-03-26T04:08:13.724Z,1001.43
2023-03-26T04:09:13.636Z,1001.33
2023-03-26T04:10:12.790Z,1001.31
2023-03-26T04:11:12.729Z,1001.40
2023-03-26T04:12:12.751Z,1001.30
2023-03-26T04:13:13.613Z,1001.30
2023-03-26T04:14:12.680Z,1001.35
2023-03-26T04:15:12.683Z,1001.30
2023-03-26T04:16:12.759Z,1001.32
2023-03-26T04:17:12.681Z,1001.31
2023-03-26T04:18:12.670Z,1001.30
2023-03-26T04:19:12.815Z,1001.28
2023-03-26T04:20:12.702Z,1001.28
2023-03-26T04:21:12.822Z,1001.27
2023-03-26T04:22:12.752Z,1001.25
2023-03-26T04:23:12.697Z,1001.24
2023-03-26T04:24:12.759Z,1001.29
2023-03-26T04:25:12.741Z,1001.31
2023-03-26T04:26:12.767Z,1001.22
2023-03-26T04:27:12.669Z,1001.22
2023-03-26T04:28:12.853Z,1001.23
2023-03-26T04:29:12.455Z,1001.19
2023-03-26T04:30:12.688Z,1001.22
2023-03-26T04:31:12.467Z,1001.20
2023-03-26T04:32:12.726Z,1001.20
2023-03-26T04:33:12.573Z,1001.23
2023-03-26T04:34:12.373Z,1001.18
2023-03-26T04:35:12.404Z,1001.19
2023-03-26T04:36:12.756Z,1001.20
2023-03-26T04:37:12.312Z,1001.18
2023-03-26T04:38:12.313Z,1001.17
2023-03-26T04:39:12.347Z,1001.16
2023-03-26T04:40:12.256Z,1001.17
2023-03-26T04:41:12.748Z,1001.13
2023-03-26T04:42:12.230Z,1001.21
2023-03-26T04:43:12.237Z,1001.15
2023-03-26T04:44:12.280Z,1001.18
2023-03-26T04:45:12.287Z,1001.18
2023-03-26T04:46:12.269Z,1001.20
2023-03-26T04:47:12.241Z,1001.18
2023-03-26T04:48:12.196Z,1001.15
2023-03-26T04:49:12.159Z,1001.11
2023-03-26T04:50:12.134Z,1001.14
2023-03-26T04:51:12.205Z,1001.12
2023-03-26T04:52:12.104Z,1001.13
2023-03-26T04:53:12.093Z,1001.17
2023-03-26T04:54:12.111Z,1001.09
2023-03-26T04:55:12.112Z,1001.16
2023-03-26T04:56:12.065Z,1001.19
2023-03-26T04:57:12.155Z,1001.15
2023-03-26T04:58:12.005Z,1001.11
2023-03-26T04:59:12.049Z,1001.19
2023-03-26T05:00:12.031Z,1001.14
2023-03-26T05:01:13.040Z,1001.18
2023-03-26T05:02:11.964Z,1001.20
2023-03-26T05:03:12.000Z,1001.15
2023-03-26T05:04:11.970Z,1001.16
2023-03-26T05:05:11.931Z,1001.10
2023-03-26T05:06:11.961Z,1001.15
2023-03-26T05:07:11.916Z,1001.12
2023-03-26T05:08:11.902Z,1001.14
2023-03-26T05:09:11.873Z,1001.10
2023-03-26T05:10:11.914Z,1001.05
2023-03-26T05:11:11.912Z,1001.07
2023-03-26T05:12:11.833Z,1001.08
2023-03-26T05:13:11.844Z,1001.07
2023-03-26T05:14:11.996Z,1001.07
2023-03-26T05:15:11.811Z,1001.07
2023-03-26T05:16:11.842Z,1001.11
2023-03-26T05:17:12.383Z,1001.08
2023-03-26T05:18:11.804Z,1001.06
2023-03-26T05:19:11.770Z,1001.05
2023-03-26T05:20:11.769Z,1001.08
2023-03-26T05:21:11.747Z,1001.08
2023-03-26T05:22:11.818Z,1001.09
2023-03-26T05:23:11.775Z,1001.06
2023-03-26T05:24:11.709Z,1001.02
2023-03-26T05:25:11.735Z,1001.02
2023-03-26T05:26:11.649Z,1001.06
2023-03-26T05:27:11.626Z,1001.09
2023-03-26T05:28:11.594Z,1001.17
2023-03-26T05:29:11.642Z,1001.13
2023-03-26T05:30:11.614Z,1001.17
2023-03-26T05:31:11.632Z,1001.12
2023-03-26T05:32:11.563Z,1001.12
2023-03-26T05:33:11.985Z,1001.13
2023-03-26T05:34:11.541Z,1001.16
2023-03-26T05:35:11.572Z,1001.10
2023-03-26T05:36:11.596Z,1001.10
2023-03-26T05:37:12.346Z,1001.10
2023-03-26T05:38:11.508Z,1001.13
2023-03-26T05:39:11.517Z,1001.09
2023-03-26T05:40:11.638Z,1001.09
2023-03-26T05:41:11.470Z,1001.09
2023-03-26T05:42:11.451Z,1001.08
2023-03-26T05:43:11.471Z,1001.12
2023-03-26T05:44:11.380Z,1001.17
2023-03-26T05:45:11.413Z,1001.19
2023-03-26T05:46:12.287Z,1001.12
2023-03-26T05:47:11.468Z,1001.17
2023-03-26T05:48:11.435Z,1001.24
2023-03-26T05:49:11.328Z,1001.22
2023-03-26T05:50:11.383Z,1001.17
2023-03-26T05:51:12.180Z,1001.23
2023-03-26T05:52:11.770Z,1001.22
2023-03-26T05:53:11.502Z,1001.20
2023-03-26T05:54:12.967Z,1001.24
2023-03-26T05:55:11.588Z,1001.25
2023-03-26T05:56:13.164Z,1001.24
2023-03-26T05:57:11.795Z,1001.28
2023-03-26T05:58:11.537Z,1001.26
2023-03-26T05:59:12.071Z,1001.27
2023-03-26T06:00:11.296Z,1001.30
2023-03-26T06:01:13.838Z,1001.35
2023-03-26T06:02:11.291Z,1001.32
2023-03-26T06:03:11.288Z,1001.29
2023-03-26T06:04:11.498Z,1001.31
2023-03-26T06:05:11.703Z,1001.35
2023-03-26T06:06:11.182Z,1001.33
2023-03-26T06:07:11.218Z,1001.38
2023-03-26T06:08:11.223Z,1001.35
2023-03-26T06:09:11.151Z,1001.39
2023-03-26T06:10:11.286Z,1001.35
2023-03-26T06:11:12.039Z,1001.31
2023-03-26T06:12:11.403Z,1001.31
2023-03-26T06:13:11.122Z,1001.30
2023-03-26T06:14:11.177Z,1001.30
2023-03-26T06:15:11.158Z,1001.33
2023-03-26T06:16:26.073Z,1001.34
2023-03-26T06:17:12.121Z,1001.34
2023-03-26T06:18:11.588Z,1001.44
2023-03-26T06:19:11.012Z,1001.37
2023-03-26T06:20:11.308Z,1001.37
2023-03-26T06:21:11.190Z,1001.41
2023-03-26T06:22:10.905Z,1001.40
2023-03-26T06:23:11.116Z,1001.38
2023-03-26T06:24:11.697Z,1001.39
2023-03-26T06:25:10.860Z,1001.40
2023-03-26T06:26:10.900Z,1001.42
2023-03-26T06:27:11.160Z,1001.41
2023-03-26T06:28:10.908Z,1001.43
2023-03-26T06:29:10.981Z,1001.44
2023-03-26T06:30:11.042Z,1001.41
2023-03-26T06:31:10.790Z,1001.46
2023-03-26T06:32:19.693Z,1001.42
2023-03-26T06:33:11.878Z,1001.46
2023-03-26T06:34:10.736Z,1001.43
2023-03-26T06:35:10.764Z,1001.44
2023-03-26T06:36:10.834Z,1001.49
2023-03-26T06:37:10.761Z,1001.46
2023-03-26T06:38:10.863Z,1001.49
2023-03-26T06:39:10.659Z,1001.50
2023-03-26T06:40:10.656Z,1001.48
2023-03-26T06:41:10.661Z,1001.51
2023-03-26T06:42:10.594Z,1001.51
2023-03-26T06:43:11.212Z,1001.51
2023-03-26T06:44:10.817Z,1001.50
2023-03-26T06:45:10.696Z,1001.53
2023-03-26T06:46:10.654Z,1001.56
2023-03-26T06:47:10.545Z,1001.53
2023-03-26T06:48:10.604Z,1001.57
2023-03-26T06:49:10.596Z,1001.57
2023-03-26T06:50:10.542Z,1001.60
2023-03-26T06:51:11.385Z,1001.60
2023-03-26T06:52:10.486Z,1001.56
2023-03-26T06:53:10.445Z,1001.57
2023-03-26T06:54:10.506Z,1001.52
2023-03-26T06:55:10.441Z,1001.53
2023-03-26T06:56:10.426Z,1001.54
2023-03-26T06:57:10.449Z,1001.55
2023-03-26T06:58:10.399Z,1001.54
2023-03-26T06:59:11.128Z,1001.53
2023-03-26T07:00:11.292Z,1001.50
2023-03-26T07:01:10.405Z,1001.53
2023-03-26T07:02:10.319Z,1001.52
2023-03-26T07:03:11.403Z,1001.53
2023-03-26T07:04:11.226Z,1001.55
2023-03-26T07:05:10.289Z,1001.55
2023-03-26T07:06:11.241Z,1001.56
2023-03-26T07:07:11.133Z,1001.61
2023-03-26T07:08:11.074Z,1001.58
2023-03-26T07:09:11.263Z,1001.53
2023-03-26T07:10:11.141Z,1001.52
2023-03-26T07:11:11.038Z,1001.53
2023-03-26T07:12:10.658Z,1001.54
2023-03-26T07:13:10.176Z,1001.55
2023-03-26T07:14:10.385Z,1001.53
2023-03-26T07:15:10.230Z,1001.56
2023-03-26T07:16:11.067Z,1001.55
2023-03-26T07:17:10.319Z,1001.51
2023-03-26T07:18:10.370Z,1001.52
2023-03-26T07:19:11.005Z,1001.49
2023-03-26T07:20:10.090Z,1001.45
2023-03-26T07:21:10.833Z,1001.46
2023-03-26T07:22:10.598Z,1001.47
2023-03-26T07:23:10.881Z,1001.46
2023-03-26T07:24:10.680Z,1001.47
2023-03-26T07:25:10.049Z,1001.45
2023-03-26T07:26:10.059Z,1001.44
2023-03-26T07:27:10.745Z,1001.48
2023-03-26T07:28:09.961Z,1001.45
2023-03-26T07:29:09.966Z,1001.42
2023-03-26T07:30:09.966Z,1001.40
2023-03-26T07:31:10.871Z,1001.44
2023-03-26T07:32:10.130Z,1001.46
2023-03-26T07:33:09.952Z,1001.50
2023-03-26T07:34:10.845Z,1001.42
2023-03-26T07:35:10.752Z,1001.43
2023-03-26T07:36:09.839Z,1001.47
2023-03-26T07:37:09.863Z,1001.42
2023-03-26T07:38:10.713Z,1001.41
2023-03-26T07:39:09.902Z,1001.41
2023-03-26T07:40:09.866Z,1001.44
2023-03-26T07:41:09.859Z,1001.40
2023-03-26T07:42:09.786Z,1001.43
2023-03-26T07:43:09.773Z,1001.48
2023-03-26T07:44:09.736Z,1001.50
2023-03-26T07:45:09.869Z,1001.44
2023-03-26T07:46:09.818Z,1001.50
2023-03-26T07:47:09.831Z,1001.46
2023-03-26T07:48:09.701Z,1001.41
2023-03-26T07:49:09.680Z,1001.39
2023-03-26T07:50:09.678Z,1001.46
2023-03-26T07:51:09.630Z,1001.47
2023-03-26T07:52:09.682Z,1001.51
2023-03-26T07:53:10.553Z,1001.44
2023-03-26T07:54:09.801Z,1001.40
2023-03-26T07:55:09.595Z,1001.34
2023-03-26T07:56:09.698Z,1001.40
2023-03-26T07:57:09.840Z,1001.39
2023-03-26T07:58:09.617Z,1001.44
2023-03-26T07:59:09.531Z,1001.42
2023-03-26T08:00:09.558Z,1001.43
2023-03-26T08:01:09.470Z,1001.46
2023-03-26T08:02:09.487Z,1001.42
2023-03-26T08:03:09.624Z,1001.45
2023-03-26T08:04:24.766Z,1001.51
2023-03-26T08:05:10.732Z,1001.47
2023-03-26T08:06:09.534Z,1001.43
2023-03-26T08:07:09.458Z,1001.43
2023-03-26T08:08:09.494Z,1001.44
2023-03-26T08:09:09.382Z,1001.45
2023-03-26T08:10:09.442Z,1001.48
2023-03-26T08:11:09.383Z,1001.48
2023-03-26T08:12:09.461Z,1001.48
2023-03-26T08:13:09.348Z,1001.49
2023-03-26T08:14:09.333Z,1001.45
2023-03-26T08:15:09.396Z,1001.51
2023-03-26T08:16:09.318Z,1001.49
2023-03-26T08:17:09.394Z,1001.46
2023-03-26T08:18:09.413Z,1001.51
2023-03-26T08:19:09.236Z,1001.48
2023-03-26T08:20:09.257Z,1001.46
2023-03-26T08:21:09.200Z,1001.48
2023-03-26T08:22:09.234Z,1001.50
2023-03-26T08:23:09.184Z,1001.52
2023-03-26T08:24:09.192Z,1001.50
2023-03-26T08:25:09.124Z,1001.53
2023-03-26T08:26:09.124Z,1001.57
2023-03-26T08:27:09.329Z,1001.52
2023-03-26T08:28:09.204Z,1001.57
2023-03-26T08:29:09.077Z,1001.51
2023-03-26T08:30:09.080Z,1001.47
2023-03-26T08:31:09.153Z,1001.49
2023-03-26T08:32:09.046Z,1001.52
2023-03-26T08:33:09.122Z,1001.55
2023-03-26T08:34:09.362Z,1001.53
2023-03-26T08:35:09.047Z,1001.53
2023-03-26T08:36:09.110Z,1001.57
2023-03-26T08:37:08.939Z,1001.55
2023-03-26T08:38:09.086Z,1001.55
2023-03-26T08:39:09.036Z,1001.53
2023-03-26T08:40:09.332Z,1001.59
2023-03-26T08:41:08.978Z,1001.57
2023-03-26T08:42:08.913Z,1001.55
2023-03-26T08:43:09.327Z,1001.56
2023-03-26T08:44:08.847Z,1001.53
2023-03-26T08:45:08.881Z,1001.56
2023-03-26T08:46:08.888Z,1001.59
2023-03-26T08:47:08.984Z,1001.53
2023-03-26T08:48:08.876Z,1001.54
2023-03-26T08:49:08.819Z,1001.49
2023-03-26T08:50:08.821Z,1001.51
2023-03-26T08:51:08.792Z,1001.56
2023-03-26T08:52:08.837Z,1001.61
2023-03-26T08:53:08.841Z,1001.58
2023-03-26T08:54:08.753Z,1001.60
2023-03-26T08:55:08.757Z,1001.57
2023-03-26T08:56:08.811Z,1001.53
2023-03-26T08:57:08.760Z,1001.54
2023-03-26T08:58:08.690Z,1001.50
2023-03-26T08:59:08.757Z,1001.54
2023-03-26T09:00:08.679Z,1001.50
2023-03-26T09:01:08.685Z,1001.49
2023-03-26T09:02:08.708Z,1001.48
2023-03-26T09:03:08.604Z,1001.48
2023-03-26T09:04:08.769Z,1001.51
2023-03-26T09:05:08.604Z,1001.47
2023-03-26T09:06:08.568Z,1001.53
2023-03-26T09:07:08.559Z,1001.46
2023-03-26T09:08:09.343Z,1001.44
2023-03-26T09:09:08.593Z,1001.46
2023-03-26T09:10:09.515Z,1001.44
2023-03-26T09:11:09.349Z,1001.43
2023-03-26T09:12:08.572Z,1001.45
2023-03-26T09:13:08.477Z,1001.43
2023-03-26T09:14:09.430Z,1001.46
2023-03-26T09:15:08.501Z,1001.50
2023-03-26T09:16:08.541Z,1001.46
2023-03-26T09:17:08.456Z,1001.49
2023-03-26T09:18:08.466Z,1001.42
2023-03-26T09:19:09.204Z,1001.44
2023-03-26T09:20:08.388Z,1001.44
2023-03-26T09:21:08.396Z,1001.49
2023-03-26T09:22:08.376Z,1001.45
2023-03-26T09:23:08.411Z,1001.51
2023-03-26T09:24:08.365Z,1001.49
2023-03-26T09:25:08.326Z,1001.48
2023-03-26T09:26:08.322Z,1001.50
2023-03-26T09:27:08.326Z,1001.49
2023-03-26T09:28:08.277Z,1001.51
2023-03-26T09:29:08.279Z,1001.46
2023-03-26T09:30:08.294Z,1001.46
2023-03-26T09:31:08.345Z,1001.48
2023-03-26T09:32:08.240Z,1001.56
2023-03-26T09:33:08.284Z,1001.58
2023-03-26T09:34:08.223Z,1001.56
2023-03-26T09:35:08.182Z,1001.53
2023-03-26T09:36:08.197Z,1001.53
2023-03-26T09:37:08.193Z,1001.55
2023-03-26T09:38:08.179Z,1001.56
2023-03-26T09:39:08.216Z,1001.51
2023-03-26T09:40:08.172Z,1001.56
2023-03-26T09:41:08.085Z,1001.56
2023-03-26T09:42:08.095Z,1001.56
2023-03-26T09:43:08.249Z,1001.63
2023-03-26T09:44:08.869Z,1001.66
2023-03-26T09:45:08.027Z,1001.67
2023-03-26T09:46:08.058Z,1001.70
2023-03-26T09:47:07.987Z,1001.70
2023-03-26T09:48:08.996Z,1001.68
2023-03-26T09:49:08.157Z,1001.67
2023-03-26T09:50:08.796Z,1001.63
2023-03-26T09:51:07.968Z,1001.67
2023-03-26T09:52:08.873Z,1001.64
2023-03-26T09:53:08.762Z,1001.64
2023-03-26T09:54:07.901Z,1001.73
2023-03-26T09:55:07.945Z,1001.73
2023-03-26T09:56:08.007Z,1001.72
2023-03-26T09:57:07.909Z,1001.72
2023-03-26T09:58:07.859Z,1001.68
2023-03-26T09:59:08.693Z,1001.72
2023-03-26T10:00:08.601Z,1001.68
2023-03-26T10:01:07.861Z,1001.71
2023-03-26T10:02:07.883Z,1001.71
2023-03-26T10:03:08.620Z,1001.74
2023-03-26T10:04:08.729Z,1001.80
2023-03-26T10:05:08.704Z,1001.83
2023-03-26T10:06:08.531Z,1001.77
2023-03-26T10:07:08.716Z,1001.79
2023-03-26T10:08:08.598Z,1001.75
2023-03-26T10:09:08.549Z,1001.74
2023-03-26T10:10:07.693Z,1001.79
2023-03-26T10:11:07.712Z,1001.79
2023-03-26T10:12:07.659Z,1001.73
2023-03-26T10:13:14.620Z,1001.80
2023-03-26T10:14:08.703Z,1001.75
2023-03-26T10:15:08.444Z,1001.77
2023-03-26T10:16:07.654Z,1001.77
2023-03-26T10:17:08.503Z,1001.78
2023-03-26T10:18:27.368Z,1001.81
2023-03-26T10:19:08.516Z,1001.80
2023-03-26T10:20:08.476Z,1001.80
2023-03-26T10:21:07.673Z,1001.79
2023-03-26T10:22:08.279Z,1001.79
2023-03-26T10:23:07.683Z,1001.76
2023-03-26T10:24:07.488Z,1001.81
2023-03-26T10:25:08.288Z,1001.83
2023-03-26T10:26:07.490Z,1001.82
2023-03-26T10:27:10.347Z,1001.82
2023-03-26T10:28:08.212Z,1001.85
2023-03-26T10:29:07.451Z,1001.85
2023-03-26T10:30:07.476Z,1001.85
2023-03-26T10:31:07.471Z,1001.87
2023-03-26T10:32:08.344Z,1001.87
2023-03-26T10:33:08.257Z,1001.87
2023-03-26T10:34:08.154Z,1001.81
2023-03-26T10:35:08.343Z,1001.85
2023-03-26T10:36:08.225Z,1001.82
2023-03-26T10:37:08.149Z,1001.85
2023-03-26T10:38:08.272Z,1001.80
2023-03-26T10:39:08.236Z,1001.81
2023-03-26T10:40:08.153Z,1001.79
2023-03-26T10:41:07.358Z,1001.78
2023-03-26T10:42:07.484Z,1001.76
2023-03-26T10:43:08.052Z,1001.83
2023-03-26T10:44:09.064Z,1001.75
2023-03-26T10:45:07.465Z,1001.77
2023-03-26T10:46:07.353Z,1001.77
2023-03-26T10:47:07.194Z,1001.79
2023-03-26T10:48:07.381Z,1001.79
2023-03-26T10:49:07.141Z,1001.76
2023-03-26T10:50:07.160Z,1001.80
2023-03-26T10:51:08.058Z,1001.84
2023-03-26T10:52:07.860Z,1001.76
2023-03-26T10:53:07.345Z,1001.74
2023-03-26T10:54:07.162Z,1001.78
2023-03-26T10:55:07.203Z,1001.82
2023-03-26T10:56:07.093Z,1001.88
2023-03-26T10:57:08.061Z,1001.80
2023-03-26T10:58:07.028Z,1001.85
2023-03-26T10:59:07.048Z,1001.86
2023-03-26T11:00:07.117Z,1001.75
2023-03-26T11:01:07.118Z,1001.90
2023-03-26T11:02:07.056Z,1001.83
2023-03-26T11:03:07.019Z,1001.83
2023-03-26T11:04:07.049Z,1001.82
2023-03-26T11:05:06.989Z,1001.79
2023-03-26T11:06:06.924Z,1001.80
2023-03-26T11:07:06.902Z,1001.76
2023-03-26T11:08:07.014Z,1001.74
2023-03-26T11:09:06.912Z,1001.66
2023-03-26T11:10:06.996Z,1001.62
2023-03-26T11:11:06.880Z,1001.61
2023-03-26T11:12:26.199Z,1001.73
2023-03-26T11:13:08.776Z,1001.60
2023-03-26T11:14:06.794Z,1001.62
2023-03-26T11:15:06.799Z,1001.67
2023-03-26T11:16:06.832Z,1001.64
2023-03-26T11:17:06.819Z,1001.76
2023-03-26T11:18:06.785Z,1001.71
2023-03-26T11:19:06.806Z,1001.73
2023-03-26T11:20:07.584Z,1001.73
2023-03-26T11:21:18.973Z,1001.74
2023-03-26T11:22:08.706Z,1001.74
2023-03-26T11:23:06.698Z,1001.67
2023-03-26T11:24:06.704Z,1001.75
2023-03-26T11:25:06.644Z,1001.73
2023-03-26T11:26:06.656Z,1001.62
2023-03-26T11:28:07.608Z,1001.67
2023-03-26T11:29:31.281Z,1001.67
2023-03-26T11:30:07.632Z,1001.68
2023-03-26T11:31:06.618Z,1001.66
2023-03-26T11:32:07.464Z,1001.68
2023-03-26T11:33:06.592Z,1001.63
2023-03-26T11:34:06.584Z,1001.67
2023-03-26T11:34:36.636Z,1001.65
2023-03-26T11:35:06.718Z,1001.64
2023-03-26T11:36:06.573Z,1001.68
2023-03-26T11:37:06.476Z,1001.67
2023-03-26T11:38:06.543Z,1001.68
2023-03-26T11:39:06.433Z,1001.68
2023-03-26T11:40:06.537Z,1001.60
2023-03-26T11:41:06.623Z,1001.61
2023-03-26T11:42:06.900Z,1001.55
2023-03-26T11:43:06.404Z,1001.61
2023-03-26T11:44:06.364Z,1001.65
2023-03-26T11:45:06.392Z,1001.61
2023-03-26T11:46:06.420Z,1001.58
2023-03-26T11:47:06.334Z,1001.57
2023-03-26T11:48:06.433Z,1001.53
2023-03-26T11:49:06.343Z,1001.53
2023-03-26T11:50:06.393Z,1001.52
2023-03-26T11:51:06.346Z,1001.54
2023-03-26T11:52:06.284Z,1001.43
2023-03-26T11:53:06.429Z,1001.61
2023-03-26T11:54:06.217Z,1001.49
2023-03-26T11:55:06.338Z,1001.50
2023-03-26T11:56:06.264Z,1001.48
2023-03-26T11:57:07.299Z,1001.46
2023-03-26T11:58:06.226Z,1001.44
2023-03-26T11:59:06.174Z,1001.46
2023-03-26T12:00:06.177Z,1001.46
2023-03-26T12:01:06.102Z,1001.45
2023-03-26T12:02:06.208Z,1001.42
2023-03-26T12:03:06.220Z,1001.43
2023-03-26T12:04:06.127Z,1001.46
2023-03-26T12:05:06.093Z,1001.41